sensor_id;sensor_type;location;lat;lon;timestamp;pressure;altitude;pressure_sealevel;temperature;humidity
77706;BME280;66874;45.274;5.880;2023-07-31T00:01:14;99161.91;;;17.47;56.84
77706;BME280;66874;45.274;5.880;2023-07-31T00:03:40;99153.13;;;17.47;56.62
77706;BME280;66874;45.274;5.880;2023-07-31T00:06:05;99149.88;;;17.40;57.03
77706;BME280;66874;45.274;5.880;2023-07-31T00:08:30;99151.69;;;17.40;57.06
77706;BME280;66874;45.274;5.880;2023-07-31T00:10:56;99140.38;;;17.36;57.28
77706;BME280;66874;45.274;5.880;2023-07-31T00:13:21;99136.97;;;17.34;57.52
77706;BME280;66874;45.274;5.880;2023-07-31T00:15:46;99140.59;;;17.31;57.52
77706;BME280;66874;45.274;5.880;2023-07-31T00:18:12;99140.69;;;17.30;57.82
77706;BME280;66874;45.274;5.880;2023-07-31T00:20:38;99139.78;;;17.29;57.71
77706;BME280;66874;45.274;5.880;2023-07-31T00:23:03;99136.47;;;17.26;57.45
77706;BME280;66874;45.274;5.880;2023-07-31T00:25:28;99124.22;;;17.23;57.80
77706;BME280;66874;45.274;5.880;2023-07-31T00:27:54;99122.56;;;17.21;57.64
77706;BME280;66874;45.274;5.880;2023-07-31T00:30:19;99119.28;;;17.16;58.13
77706;BME280;66874;45.274;5.880;2023-07-31T00:32:44;99111.41;;;17.14;58.03
77706;BME280;66874;45.274;5.880;2023-07-31T00:35:10;99116.78;;;17.13;58.15
77706;BME280;66874;45.274;5.880;2023-07-31T00:37:35;99112.44;;;17.12;58.40
77706;BME280;66874;45.274;5.880;2023-07-31T00:40:01;99115.13;;;17.10;58.62
77706;BME280;66874;45.274;5.880;2023-07-31T00:42:28;99109.06;;;17.08;58.56
77706;BME280;66874;45.274;5.880;2023-07-31T00:44:53;99113.63;;;17.04;58.43
77706;BME280;66874;45.274;5.880;2023-07-31T00:47:19;99115.75;;;16.96;58.72
77706;BME280;66874;45.274;5.880;2023-07-31T00:49:45;99118.41;;;16.96;59.21
77706;BME280;66874;45.274;5.880;2023-07-31T00:52:10;99113.97;;;16.97;59.23
77706;BME280;66874;45.274;5.880;2023-07-31T00:54:36;99111.44;;;16.94;59.25
77706;BME280;66874;45.274;5.880;2023-07-31T00:57:02;99111.66;;;16.89;59.37
77706;BME280;66874;45.274;5.880;2023-07-31T00:59:27;99112.53;;;16.90;59.60
77706;BME280;66874;45.274;5.880;2023-07-31T01:01:53;99118.09;;;16.83;59.37
77706;BME280;66874;45.274;5.880;2023-07-31T01:04:18;99113.19;;;16.74;59.89
77706;BME280;66874;45.274;5.880;2023-07-31T01:10:20;99110.53;;;16.74;59.95
77706;BME280;66874;45.274;5.880;2023-07-31T01:12:47;99115.94;;;16.71;60.10
77706;BME280;66874;45.274;5.880;2023-07-31T01:15:13;99126.44;;;16.73;60.24
77706;BME280;66874;45.274;5.880;2023-07-31T01:17:42;99115.03;;;16.72;60.22
77706;BME280;66874;45.274;5.880;2023-07-31T01:20:17;99124.00;;;16.68;60.41
77706;BME280;66874;45.274;5.880;2023-07-31T01:28:20;99116.47;;;16.59;60.51
77706;BME280;66874;45.274;5.880;2023-07-31T01:30:49;99119.31;;;16.54;60.63
77706;BME280;66874;45.274;5.880;2023-07-31T01:33:18;99117.59;;;16.53;60.76
77706;BME280;66874;45.274;5.880;2023-07-31T01:35:45;99118.56;;;16.51;60.96
77706;BME280;66874;45.274;5.880;2023-07-31T01:38:11;99118.44;;;16.54;61.06
77706;BME280;66874;45.274;5.880;2023-07-31T01:40:37;99118.50;;;16.52;61.16
77706;BME280;66874;45.274;5.880;2023-07-31T01:43:02;99103.59;;;16.51;61.22
77706;BME280;66874;45.274;5.880;2023-07-31T01:45:28;99099.34;;;16.47;61.54
77706;BME280;66874;45.274;5.880;2023-07-31T01:47:53;99107.47;;;16.43;61.62
77706;BME280;66874;45.274;5.880;2023-07-31T01:50:18;99112.88;;;16.40;61.76
77706;BME280;66874;45.274;5.880;2023-07-31T01:52:44;99114.75;;;16.38;62.13
77706;BME280;66874;45.274;5.880;2023-07-31T01:55:09;99110.53;;;16.33;62.20
77706;BME280;66874;45.274;5.880;2023-07-31T01:57:36;99115.84;;;16.32;62.39
77706;BME280;66874;45.274;5.880;2023-07-31T02:00:02;99113.28;;;16.30;62.51
77706;BME280;66874;45.274;5.880;2023-07-31T02:02:27;99118.69;;;16.27;62.53
77706;BME280;66874;45.274;5.880;2023-07-31T02:04:53;99123.97;;;16.27;62.57
77706;BME280;66874;45.274;5.880;2023-07-31T02:07:18;99118.75;;;16.26;62.57
77706;BME280;66874;45.274;5.880;2023-07-31T02:09:43;99108.53;;;16.18;62.91
77706;BME280;66874;45.274;5.880;2023-07-31T02:12:09;99111.28;;;16.15;62.79
77706;BME280;66874;45.274;5.880;2023-07-31T02:14:34;99109.63;;;16.13;63.01
77706;BME280;66874;45.274;5.880;2023-07-31T02:17:00;99112.31;;;16.11;63.23
77706;BME280;66874;45.274;5.880;2023-07-31T02:19:25;99116.91;;;16.06;63.28
77706;BME280;66874;45.274;5.880;2023-07-31T02:21:51;99118.88;;;16.01;63.41
77706;BME280;66874;45.274;5.880;2023-07-31T02:24:16;99111.16;;;15.96;63.51
77706;BME280;66874;45.274;5.880;2023-07-31T02:26:41;99109.44;;;15.95;63.89
77706;BME280;66874;45.274;5.880;2023-07-31T02:29:08;99113.00;;;15.94;64.05
77706;BME280;66874;45.274;5.880;2023-07-31T02:31:33;99117.53;;;15.91;63.95
77706;BME280;66874;45.274;5.880;2023-07-31T02:33:59;99103.59;;;15.87;63.81
77706;BME280;66874;45.274;5.880;2023-07-31T02:36:24;99108.75;;;15.90;63.76
77706;BME280;66874;45.274;5.880;2023-07-31T02:38:49;99103.44;;;15.92;63.90
77706;BME280;66874;45.274;5.880;2023-07-31T02:41:15;99101.69;;;15.91;63.84
77706;BME280;66874;45.274;5.880;2023-07-31T02:43:40;99098.16;;;15.92;63.97
77706;BME280;66874;45.274;5.880;2023-07-31T02:46:05;99101.69;;;15.91;63.90
77706;BME280;66874;45.274;5.880;2023-07-31T02:48:31;99092.94;;;15.90;64.05
77706;BME280;66874;45.274;5.880;2023-07-31T02:50:56;99099.25;;;15.86;64.16
77706;BME280;66874;45.274;5.880;2023-07-31T02:53:22;99099.31;;;15.84;64.23
77706;BME280;66874;45.274;5.880;2023-07-31T02:55:48;99093.19;;;15.84;64.14
77706;BME280;66874;45.274;5.880;2023-07-31T02:58:13;99098.50;;;15.82;64.09
77706;BME280;66874;45.274;5.880;2023-07-31T03:00:45;99103.78;;;15.82;64.20
77706;BME280;66874;45.274;5.880;2023-07-31T03:03:10;99099.50;;;15.80;64.08
77706;BME280;66874;45.274;5.880;2023-07-31T03:05:36;99110.06;;;15.80;64.20
77706;BME280;66874;45.274;5.880;2023-07-31T03:08:02;99104.72;;;15.81;64.16
77706;BME280;66874;45.274;5.880;2023-07-31T03:10:27;99103.88;;;15.81;64.12
77706;BME280;66874;45.274;5.880;2023-07-31T03:12:52;99102.09;;;15.81;64.18
77706;BME280;66874;45.274;5.880;2023-07-31T03:15:18;99100.28;;;15.82;64.39
77706;BME280;66874;45.274;5.880;2023-07-31T03:17:43;99095.09;;;15.80;64.48
77706;BME280;66874;45.274;5.880;2023-07-31T03:20:09;99092.75;;;15.73;64.63
77706;BME280;66874;45.274;5.880;2023-07-31T03:22:34;99099.13;;;15.67;64.76
77706;BME280;66874;45.274;5.880;2023-07-31T03:25:01;99098.50;;;15.60;64.99
77706;BME280;66874;45.274;5.880;2023-07-31T03:27:26;99100.38;;;15.57;64.88
77706;BME280;66874;45.274;5.880;2023-07-31T03:29:52;99101.25;;;15.57;64.82
77706;BME280;66874;45.274;5.880;2023-07-31T03:32:17;99103.91;;;15.56;65.02
77706;BME280;66874;45.274;5.880;2023-07-31T03:34:43;99115.41;;;15.55;65.05
77706;BME280;66874;45.274;5.880;2023-07-31T03:37:08;99104.91;;;15.53;65.04
77706;BME280;66874;45.274;5.880;2023-07-31T03:39:34;99113.69;;;15.54;65.28
77706;BME280;66874;45.274;5.880;2023-07-31T03:42:00;99124.34;;;15.51;65.42
77706;BME280;66874;45.274;5.880;2023-07-31T03:44:25;99119.13;;;15.49;65.50
77706;BME280;66874;45.274;5.880;2023-07-31T03:46:51;99136.09;;;15.42;65.54
77706;BME280;66874;45.274;5.880;2023-07-31T03:49:16;99134.31;;;15.43;65.75
77706;BME280;66874;45.274;5.880;2023-07-31T03:51:42;99145.63;;;15.46;65.70
77706;BME280;66874;45.274;5.880;2023-07-31T03:54:07;99146.53;;;15.45;65.93
77706;BME280;66874;45.274;5.880;2023-07-31T03:56:33;99149.22;;;15.44;66.12
77706;BME280;66874;45.274;5.880;2023-07-31T03:58:59;99154.59;;;15.41;66.33
77706;BME280;66874;45.274;5.880;2023-07-31T04:01:24;99150.47;;;15.33;66.61
77706;BME280;66874;45.274;5.880;2023-07-31T04:03:49;99158.53;;;15.29;66.84
77706;BME280;66874;45.274;5.880;2023-07-31T04:06:15;99157.78;;;15.25;66.87
77706;BME280;66874;45.274;5.880;2023-07-31T04:08:43;99159.81;;;15.19;67.13
77706;BME280;66874;45.274;5.880;2023-07-31T04:11:09;99156.44;;;15.15;67.21
77706;BME280;66874;45.274;5.880;2023-07-31T04:13:35;99148.63;;;15.12;67.25
77706;BME280;66874;45.274;5.880;2023-07-31T04:16:00;99146.03;;;15.10;67.60
77706;BME280;66874;45.274;5.880;2023-07-31T04:18:25;99146.03;;;15.10;67.68
77706;BME280;66874;45.274;5.880;2023-07-31T04:20:51;99151.19;;;15.13;67.71
77706;BME280;66874;45.274;5.880;2023-07-31T04:23:16;99136.13;;;15.17;67.97
77706;BME280;66874;45.274;5.880;2023-07-31T04:25:42;99134.22;;;15.22;67.76
77706;BME280;66874;45.274;5.880;2023-07-31T04:28:07;99133.28;;;15.23;67.84
77706;BME280;66874;45.274;5.880;2023-07-31T04:30:34;99123.72;;;15.21;67.87
77706;BME280;66874;45.274;5.880;2023-07-31T04:32:59;99129.06;;;15.19;67.86
77706;BME280;66874;45.274;5.880;2023-07-31T04:35:25;99141.38;;;15.19;67.91
77706;BME280;66874;45.274;5.880;2023-07-31T04:37:50;99125.59;;;15.17;67.99
77706;BME280;66874;45.274;5.880;2023-07-31T04:40:16;99126.41;;;15.19;67.93
77706;BME280;66874;45.274;5.880;2023-07-31T04:42:41;99141.13;;;15.25;67.90
77706;BME280;66874;45.274;5.880;2023-07-31T04:45:08;99140.38;;;15.21;68.00
77706;BME280;66874;45.274;5.880;2023-07-31T04:47:34;99150.91;;;15.21;67.96
77706;BME280;66874;45.274;5.880;2023-07-31T04:49:59;99149.09;;;15.23;67.96
77706;BME280;66874;45.274;5.880;2023-07-31T04:52:24;99165.59;;;15.28;68.04
77706;BME280;66874;45.274;5.880;2023-07-31T04:54:50;99175.97;;;15.33;67.96
77706;BME280;66874;45.274;5.880;2023-07-31T04:57:15;99179.31;;;15.38;67.90
77706;BME280;66874;45.274;5.880;2023-07-31T04:59:41;99184.34;;;15.44;67.80
77706;BME280;66874;45.274;5.880;2023-07-31T05:02:08;99192.13;;;15.47;67.90
77706;BME280;66874;45.274;5.880;2023-07-31T05:04:33;99184.16;;;15.49;67.96
77706;BME280;66874;45.274;5.880;2023-07-31T05:06:59;99187.63;;;15.51;68.00
77706;BME280;66874;45.274;5.880;2023-07-31T05:09:24;99172.53;;;15.54;67.97
77706;BME280;66874;45.274;5.880;2023-07-31T05:11:50;99175.97;;;15.56;68.14
77706;BME280;66874;45.274;5.880;2023-07-31T05:14:15;99177.59;;;15.60;68.17
77706;BME280;66874;45.274;5.880;2023-07-31T05:16:41;99172.44;;;15.57;68.39
77706;BME280;66874;45.274;5.880;2023-07-31T05:19:07;99167.91;;;15.61;68.61
77706;BME280;66874;45.274;5.880;2023-07-31T05:21:32;99154.56;;;15.66;68.66
77706;BME280;66874;45.274;5.880;2023-07-31T05:23:57;99151.00;;;15.67;68.83
77706;BME280;66874;45.274;5.880;2023-07-31T05:26:23;99151.75;;;15.70;68.92
77706;BME280;66874;45.274;5.880;2023-07-31T05:28:48;99144.66;;;15.72;69.04
77706;BME280;66874;45.274;5.880;2023-07-31T05:31:14;99137.53;;;15.74;69.24
77706;BME280;66874;45.274;5.880;2023-07-31T05:33:39;99141.72;;;15.80;69.04
77706;BME280;66874;45.274;5.880;2023-07-31T05:36:04;99141.56;;;15.83;68.99
77706;BME280;66874;45.274;5.880;2023-07-31T05:38:30;99150.19;;;15.88;69.00
77706;BME280;66874;45.274;5.880;2023-07-31T05:40:55;99161.41;;;15.93;68.82
77706;BME280;66874;45.274;5.880;2023-07-31T05:43:21;99167.34;;;15.98;68.65
77706;BME280;66874;45.274;5.880;2023-07-31T05:45:46;99172.50;;;16.01;68.27
77706;BME280;66874;45.274;5.880;2023-07-31T05:48:12;99170.81;;;16.00;68.26
77706;BME280;66874;45.274;5.880;2023-07-31T05:50:37;99167.19;;;16.03;67.93
77706;BME280;66874;45.274;5.880;2023-07-31T05:53:05;99159.97;;;16.06;67.74
77706;BME280;66874;45.274;5.880;2023-07-31T05:55:31;99157.03;;;16.14;67.48
77706;BME280;66874;45.274;5.880;2023-07-31T05:57:56;99166.50;;;16.20;67.44
77706;BME280;66874;45.274;5.880;2023-07-31T06:00:22;99176.84;;;16.26;67.66
77706;BME280;66874;45.274;5.880;2023-07-31T06:02:48;99174.97;;;16.28;67.89
77706;BME280;66874;45.274;5.880;2023-07-31T06:05:13;99155.53;;;16.30;67.90
77706;BME280;66874;45.274;5.880;2023-07-31T06:07:39;99158.16;;;16.30;68.14
77706;BME280;66874;45.274;5.880;2023-07-31T06:10:05;99146.66;;;16.31;68.07
77706;BME280;66874;45.274;5.880;2023-07-31T06:12:31;99133.47;;;16.31;68.11
77706;BME280;66874;45.274;5.880;2023-07-31T06:14:57;99129.91;;;16.32;68.02
77706;BME280;66874;45.274;5.880;2023-07-31T06:17:22;99121.78;;;16.37;68.06
77706;BME280;66874;45.274;5.880;2023-07-31T06:19:49;99117.84;;;16.47;67.82
77706;BME280;66874;45.274;5.880;2023-07-31T06:22:14;99117.44;;;16.56;67.76
77706;BME280;66874;45.274;5.880;2023-07-31T06:24:40;99127.53;;;16.67;67.42
77706;BME280;66874;45.274;5.880;2023-07-31T06:27:06;99121.84;;;16.78;67.08
77706;BME280;66874;45.274;5.880;2023-07-31T06:29:31;99118.78;;;16.87;66.92
77706;BME280;66874;45.274;5.880;2023-07-31T06:31:57;99113.03;;;16.98;66.48
77706;BME280;66874;45.274;5.880;2023-07-31T06:34:23;99114.28;;;17.09;66.26
77706;BME280;66874;45.274;5.880;2023-07-31T06:36:48;99108.72;;;17.16;65.83
77706;BME280;66874;45.274;5.880;2023-07-31T06:39:13;99110.38;;;17.18;65.77
77706;BME280;66874;45.274;5.880;2023-07-31T06:41:39;99109.13;;;17.25;65.76
77706;BME280;66874;45.274;5.880;2023-07-31T06:44:04;99109.69;;;17.33;65.68
77706;BME280;66874;45.274;5.880;2023-07-31T06:46:30;99112.81;;;17.42;65.04
77706;BME280;66874;45.274;5.880;2023-07-31T06:48:55;99113.53;;;17.45;64.81
77706;BME280;66874;45.274;5.880;2023-07-31T06:51:20;99117.81;;;17.48;64.74
77706;BME280;66874;45.274;5.880;2023-07-31T06:53:46;99117.75;;;17.49;64.58
77706;BME280;66874;45.274;5.880;2023-07-31T06:56:12;99118.38;;;17.54;64.38
77706;BME280;66874;45.274;5.880;2023-07-31T06:58:37;99116.31;;;17.61;64.11
77706;BME280;66874;45.274;5.880;2023-07-31T07:01:02;99127.53;;;17.66;63.92
77706;BME280;66874;45.274;5.880;2023-07-31T07:03:28;99118.59;;;17.69;63.72
77706;BME280;66874;45.274;5.880;2023-07-31T07:05:54;99121.81;;;17.75;63.59
77706;BME280;66874;45.274;5.880;2023-07-31T07:08:19;99121.53;;;17.81;63.67
77706;BME280;66874;45.274;5.880;2023-07-31T07:10:44;99116.97;;;17.85;63.15
77706;BME280;66874;45.274;5.880;2023-07-31T07:13:10;99107.81;;;17.92;63.25
77706;BME280;66874;45.274;5.880;2023-07-31T07:15:35;99115.53;;;17.97;62.97
77706;BME280;66874;45.274;5.880;2023-07-31T07:18:01;99112.59;;;18.03;63.04
77706;BME280;66874;45.274;5.880;2023-07-31T07:20:26;99101.63;;;18.11;62.82
77706;BME280;66874;45.274;5.880;2023-07-31T07:22:51;99107.53;;;18.16;62.59
77706;BME280;66874;45.274;5.880;2023-07-31T07:25:17;99105.34;;;18.24;62.73
77706;BME280;66874;45.274;5.880;2023-07-31T07:27:42;99102.25;;;18.33;62.54
77706;BME280;66874;45.274;5.880;2023-07-31T07:30:09;99098.28;;;18.42;62.43
77706;BME280;66874;45.274;5.880;2023-07-31T07:32:35;99098.06;;;18.46;62.38
77706;BME280;66874;45.274;5.880;2023-07-31T07:35:00;99106.69;;;18.50;62.11
77706;BME280;66874;45.274;5.880;2023-07-31T07:37:25;99098.44;;;18.56;62.11
77706;BME280;66874;45.274;5.880;2023-07-31T07:39:51;99089.22;;;18.63;62.05
77706;BME280;66874;45.274;5.880;2023-07-31T07:42:16;99084.56;;;18.68;61.91
77706;BME280;66874;45.274;5.880;2023-07-31T07:44:41;99100.97;;;18.76;61.65
77706;BME280;66874;45.274;5.880;2023-07-31T07:47:07;99093.31;;;18.88;61.64
77706;BME280;66874;45.274;5.880;2023-07-31T07:49:34;99094.59;;;18.96;61.55
77706;BME280;66874;45.274;5.880;2023-07-31T07:52:00;99084.84;;;18.97;61.11
77706;BME280;66874;45.274;5.880;2023-07-31T07:54:25;99084.84;;;18.97;60.92
77706;BME280;66874;45.274;5.880;2023-07-31T07:56:50;99085.44;;;19.02;61.18
77706;BME280;66874;45.274;5.880;2023-07-31T07:59:16;99081.53;;;19.09;61.06
77706;BME280;66874;45.274;5.880;2023-07-31T08:01:41;99079.25;;;19.19;61.09
77706;BME280;66874;45.274;5.880;2023-07-31T08:04:07;99082.78;;;19.35;60.74
77706;BME280;66874;45.274;5.880;2023-07-31T08:06:32;99081.25;;;19.47;60.42
77706;BME280;66874;45.274;5.880;2023-07-31T08:08:57;99071.00;;;19.57;60.09
77706;BME280;66874;45.274;5.880;2023-07-31T08:11:23;99067.16;;;19.62;59.97
77706;BME280;66874;45.274;5.880;2023-07-31T08:13:49;99061.25;;;19.73;59.70
77706;BME280;66874;45.274;5.880;2023-07-31T08:16:15;99056.47;;;19.80;59.32
77706;BME280;66874;45.274;5.880;2023-07-31T08:18:40;99056.88;;;19.88;59.35
77706;BME280;66874;45.274;5.880;2023-07-31T08:21:07;99052.56;;;20.01;59.13
77706;BME280;66874;45.274;5.880;2023-07-31T08:23:33;99046.53;;;20.13;58.99
77706;BME280;66874;45.274;5.880;2023-07-31T08:25:58;99034.25;;;20.27;58.59
77706;BME280;66874;45.274;5.880;2023-07-31T08:28:25;99032.00;;;20.35;58.36
77706;BME280;66874;45.274;5.880;2023-07-31T08:30:50;99027.63;;;20.34;58.19
77706;BME280;66874;45.274;5.880;2023-07-31T08:33:16;99032.06;;;20.33;57.93
77706;BME280;66874;45.274;5.880;2023-07-31T08:35:41;99031.44;;;20.44;57.94
77706;BME280;66874;45.274;5.880;2023-07-31T08:38:07;99035.78;;;20.61;58.03
77706;BME280;66874;45.274;5.880;2023-07-31T08:40:36;99025.44;;;20.70;57.77
77706;BME280;66874;45.274;5.880;2023-07-31T08:43:02;99022.47;;;20.75;57.47
77706;BME280;66874;45.274;5.880;2023-07-31T08:45:28;99029.72;;;20.87;57.52
77706;BME280;66874;45.274;5.880;2023-07-31T08:47:55;99026.38;;;20.98;57.43
77706;BME280;66874;45.274;5.880;2023-07-31T08:52:49;99032.91;;;21.21;56.78
77706;BME280;66874;45.274;5.880;2023-07-31T08:55:14;99028.72;;;21.31;56.87
77706;BME280;66874;45.274;5.880;2023-07-31T08:57:41;99037.09;;;21.39;56.51
77706;BME280;66874;45.274;5.880;2023-07-31T09:00:08;99038.41;;;21.47;56.22
77706;BME280;66874;45.274;5.880;2023-07-31T09:02:38;99031.59;;;21.42;56.27
77706;BME280;66874;45.274;5.880;2023-07-31T09:05:09;99025.00;;;21.48;56.08
77706;BME280;66874;45.274;5.880;2023-07-31T09:07:35;99019.28;;;21.54;56.29
77706;BME280;66874;45.274;5.880;2023-07-31T09:10:02;99013.47;;;21.62;56.22
77706;BME280;66874;45.274;5.880;2023-07-31T09:12:27;99019.69;;;21.75;56.26
77706;BME280;66874;45.274;5.880;2023-07-31T09:14:53;99022.72;;;21.83;55.95
77706;BME280;66874;45.274;5.880;2023-07-31T09:17:31;99008.63;;;21.81;55.68
77706;BME280;66874;45.274;5.880;2023-07-31T09:19:58;99004.16;;;21.82;55.14
77706;BME280;66874;45.274;5.880;2023-07-31T09:22:37;99000.13;;;21.89;55.03
77706;BME280;66874;45.274;5.880;2023-07-31T09:25:22;98992.28;;;21.87;54.79
77706;BME280;66874;45.274;5.880;2023-07-31T09:30:25;98983.84;;;21.93;54.82
77706;BME280;66874;45.274;5.880;2023-07-31T09:32:52;98974.28;;;22.04;54.34
77706;BME280;66874;45.274;5.880;2023-07-31T09:35:31;98981.84;;;22.10;54.32
77706;BME280;66874;45.274;5.880;2023-07-31T09:38:05;98985.13;;;22.28;53.88
77706;BME280;66874;45.274;5.880;2023-07-31T09:40:39;98971.59;;;22.43;53.55
77706;BME280;66874;45.274;5.880;2023-07-31T09:43:12;98971.06;;;22.64;53.87
77706;BME280;66874;45.274;5.880;2023-07-31T09:45:39;98975.06;;;22.82;52.78
77706;BME280;66874;45.274;5.880;2023-07-31T09:48:13;98979.66;;;23.06;51.82
77706;BME280;66874;45.274;5.880;2023-07-31T09:50:40;98970.44;;;23.23;51.94
77706;BME280;66874;45.274;5.880;2023-07-31T09:53:07;98958.50;;;23.52;51.63
77706;BME280;66874;45.274;5.880;2023-07-31T09:55:33;98958.28;;;23.79;51.08
77706;BME280;66874;45.274;5.880;2023-07-31T09:58:03;98950.28;;;23.91;50.94
77706;BME280;66874;45.274;5.880;2023-07-31T10:00:29;98946.72;;;24.14;50.07
77706;BME280;66874;45.274;5.880;2023-07-31T10:02:59;98940.47;;;24.38;49.44
77706;BME280;66874;45.274;5.880;2023-07-31T10:05:31;98930.88;;;24.46;49.22
77706;BME280;66874;45.274;5.880;2023-07-31T10:07:58;98915.69;;;24.58;49.49
77706;BME280;66874;45.274;5.880;2023-07-31T10:10:25;98916.91;;;24.88;49.14
77706;BME280;66874;45.274;5.880;2023-07-31T10:12:52;98912.38;;;24.99;48.12
77706;BME280;66874;45.274;5.880;2023-07-31T10:15:18;98914.31;;;24.97;47.07
77706;BME280;66874;45.274;5.880;2023-07-31T10:17:47;98909.97;;;24.96;47.22
77706;BME280;66874;45.274;5.880;2023-07-31T10:20:14;98906.19;;;25.10;47.33
77706;BME280;66874;45.274;5.880;2023-07-31T10:22:42;98901.03;;;25.29;47.21
77706;BME280;66874;45.274;5.880;2023-07-31T10:25:08;98897.72;;;25.69;46.80
77706;BME280;66874;45.274;5.880;2023-07-31T10:27:35;98901.59;;;25.97;46.38
77706;BME280;66874;45.274;5.880;2023-07-31T10:30:03;98900.34;;;26.01;45.44
77706;BME280;66874;45.274;5.880;2023-07-31T10:32:29;98893.69;;;26.17;45.16
77706;BME280;66874;45.274;5.880;2023-07-31T10:34:55;98885.56;;;26.49;44.65
77706;BME280;66874;45.274;5.880;2023-07-31T10:37:27;98883.75;;;26.59;43.91
77706;BME280;66874;45.274;5.880;2023-07-31T10:40:00;98880.88;;;26.82;43.58
77706;BME280;66874;45.274;5.880;2023-07-31T10:42:53;98873.22;;;27.27;43.45
77706;BME280;66874;45.274;5.880;2023-07-31T10:45:33;98865.44;;;27.63;43.30
77706;BME280;66874;45.274;5.880;2023-07-31T10:48:00;98860.91;;;27.83;42.09
77706;BME280;66874;45.274;5.880;2023-07-31T10:50:27;98858.78;;;27.86;41.25
77706;BME280;66874;45.274;5.880;2023-07-31T10:52:55;98858.22;;;28.02;41.22
77706;BME280;66874;45.274;5.880;2023-07-31T10:55:28;98854.97;;;27.89;40.86
77706;BME280;66874;45.274;5.880;2023-07-31T10:57:55;98847.34;;;27.65;40.74
77706;BME280;66874;45.274;5.880;2023-07-31T11:00:30;98844.38;;;27.78;41.67
77706;BME280;66874;45.274;5.880;2023-07-31T11:05:45;98844.38;;;28.71;40.91
77706;BME280;66874;45.274;5.880;2023-07-31T11:08:47;98839.63;;;28.56;39.39
77706;BME280;66874;45.274;5.880;2023-07-31T11:11:14;98838.97;;;28.44;40.13
77706;BME280;66874;45.274;5.880;2023-07-31T11:13:48;98825.97;;;28.67;39.61
77706;BME280;66874;45.274;5.880;2023-07-31T11:16:24;98825.16;;;28.84;39.50
77706;BME280;66874;45.274;5.880;2023-07-31T11:18:51;98817.69;;;28.78;39.04
77706;BME280;66874;45.274;5.880;2023-07-31T11:21:19;98818.56;;;28.96;38.66
77706;BME280;66874;45.274;5.880;2023-07-31T11:23:48;98810.66;;;28.95;38.46
77706;BME280;66874;45.274;5.880;2023-07-31T11:26:14;98805.22;;;29.23;38.88
77706;BME280;66874;45.274;5.880;2023-07-31T11:28:40;98813.31;;;29.58;37.79
77706;BME280;66874;45.274;5.880;2023-07-31T11:31:09;98809.31;;;29.44;37.69
77706;BME280;66874;45.274;5.880;2023-07-31T11:33:35;98805.66;;;29.36;37.35
77706;BME280;66874;45.274;5.880;2023-07-31T11:36:00;98798.41;;;29.72;37.95
77706;BME280;66874;45.274;5.880;2023-07-31T11:38:27;98798.13;;;30.09;37.33
77706;BME280;66874;45.274;5.880;2023-07-31T11:40:54;98787.72;;;30.14;36.51
77706;BME280;66874;45.274;5.880;2023-07-31T11:43:20;98771.41;;;30.58;37.24
77706;BME280;66874;45.274;5.880;2023-07-31T11:45:50;98769.00;;;31.22;36.58
77706;BME280;66874;45.274;5.880;2023-07-31T11:48:20;98772.03;;;31.19;35.01
77706;BME280;66874;45.274;5.880;2023-07-31T11:50:47;98764.59;;;30.97;35.56
77706;BME280;66874;45.274;5.880;2023-07-31T11:53:15;98753.81;;;31.21;35.80
77706;BME280;66874;45.274;5.880;2023-07-31T11:55:41;98755.84;;;31.35;35.03
77706;BME280;66874;45.274;5.880;2023-07-31T11:58:08;98755.34;;;31.32;34.55
77706;BME280;66874;45.274;5.880;2023-07-31T12:00:33;98752.09;;;31.20;34.31
77706;BME280;66874;45.274;5.880;2023-07-31T12:02:59;98753.81;;;31.21;34.53
77706;BME280;66874;45.274;5.880;2023-07-31T12:05:24;98748.41;;;31.54;34.49
77706;BME280;66874;45.274;5.880;2023-07-31T12:07:54;98737.03;;;31.75;34.60
77706;BME280;66874;45.274;5.880;2023-07-31T12:10:27;98738.59;;;32.33;33.88
77706;BME280;66874;45.274;5.880;2023-07-31T12:13:10;98739.22;;;32.43;33.17
77706;BME280;66874;45.274;5.880;2023-07-31T12:15:40;98734.50;;;32.45;33.60
77706;BME280;66874;45.274;5.880;2023-07-31T12:18:08;98733.91;;;32.58;33.66
77706;BME280;66874;45.274;5.880;2023-07-31T12:20:34;98722.56;;;32.86;33.40
77706;BME280;66874;45.274;5.880;2023-07-31T12:23:00;98727.66;;;33.12;31.86
77706;BME280;66874;45.274;5.880;2023-07-31T12:25:30;98721.13;;;33.21;32.67
77706;BME280;66874;45.274;5.880;2023-07-31T12:27:56;98717.97;;;33.32;32.21
77706;BME280;66874;45.274;5.880;2023-07-31T12:30:34;98712.38;;;33.34;32.18
77706;BME280;66874;45.274;5.880;2023-07-31T12:33:12;98700.88;;;33.32;31.93
77706;BME280;66874;45.274;5.880;2023-07-31T12:35:41;98708.34;;;33.97;31.81
77706;BME280;66874;45.274;5.880;2023-07-31T12:38:07;98709.69;;;34.01;30.86
77706;BME280;66874;45.274;5.880;2023-07-31T12:40:32;98705.47;;;33.84;31.34
77706;BME280;66874;45.274;5.880;2023-07-31T12:43:01;98697.19;;;34.51;32.04
77706;BME280;66874;45.274;5.880;2023-07-31T12:45:27;98688.63;;;35.12;30.54
77706;BME280;66874;45.274;5.880;2023-07-31T12:47:53;98683.88;;;35.20;30.54
77706;BME280;66874;45.274;5.880;2023-07-31T12:50:18;98678.34;;;35.07;29.39
77706;BME280;66874;45.274;5.880;2023-07-31T12:52:43;98671.22;;;35.06;30.10
77706;BME280;66874;45.274;5.880;2023-07-31T12:55:09;98664.16;;;34.69;29.31
77706;BME280;66874;45.274;5.880;2023-07-31T12:57:36;98657.47;;;34.50;30.78
77706;BME280;66874;45.274;5.880;2023-07-31T13:00:01;98654.56;;;34.73;29.83
77706;BME280;66874;45.274;5.880;2023-07-31T13:02:27;98656.16;;;35.04;29.40
77706;BME280;66874;45.274;5.880;2023-07-31T13:04:52;98654.03;;;34.99;29.04
77706;BME280;66874;45.274;5.880;2023-07-31T13:07:19;98648.59;;;35.27;28.89
77706;BME280;66874;45.274;5.880;2023-07-31T13:09:44;98642.63;;;35.73;29.44
77706;BME280;66874;45.274;5.880;2023-07-31T13:12:10;98638.84;;;35.74;28.14
77706;BME280;66874;45.274;5.880;2023-07-31T13:14:35;98628.19;;;36.14;28.13